Time;durP1;ratioP1;P1;durP2;ratioP2;P2;SDS_P1;SDS_P2;PMS_P1;PMS_P2;Temp;Humidity;BMP_temperature;BMP_pressure;BME280_temperature;BME280_humidity;BME280_pressure;Samples;Min_cycle;Max_cycle;Signal;HPM_P1;HPM_P2
2022/07/25 00:00:37;;;;;;;7.15;6.65;;;27.20;93.30;;;;;;6191592;28;89043;-64
2022/07/25 00:03:39;;;;;;;6.95;6.38;;;27.20;93.30;;;;;;6195034;28;89072;-64
2022/07/25 00:06:41;;;;;;;6.90;6.38;;;27.20;93.30;;;;;;6201639;28;89028;-64
2022/07/25 00:09:44;;;;;;;7.25;6.65;;;27.30;93.40;;;;;;6200863;28;87250;-64
2022/07/25 00:12:46;;;;;;;7.35;6.75;;;27.20;93.40;;;;;;6203222;28;89057;-64
2022/07/25 00:15:48;;;;;;;7.57;6.88;;;27.20;93.40;;;;;;6200830;28;89092;-64
2022/07/25 00:18:50;;;;;;;7.45;6.85;;;27.30;93.30;;;;;;6205555;28;90947;-65
2022/07/25 00:21:52;;;;;;;7.30;6.70;;;27.20;93.20;;;;;;6185214;28;88043;-64
2022/07/25 00:24:56;;;;;;;6.45;5.85;;;27.20;93.20;;;;;;6208272;28;88966;-64
2022/07/25 00:27:58;;;;;;;6.15;5.65;;;27.20;93.30;;;;;;6190452;28;88060;-64
2022/07/25 00:31:00;;;;;;;7.30;6.70;;;27.20;93.30;;;;;;6195520;28;89284;-65
2022/07/25 00:34:02;;;;;;;7.70;7.10;;;27.20;93.30;;;;;;6197255;28;88302;-64
2022/07/25 00:37:04;;;;;;;6.68;6.15;;;27.20;93.20;;;;;;6207952;28;89247;-64
2022/07/25 00:40:09;;;;;;;7.35;6.75;;;27.20;93.20;;;;;;6207519;28;88822;-64
2022/07/25 00:43:11;;;;;;;6.72;6.22;;;27.20;93.10;;;;;;6208266;28;89168;-64
2022/07/25 00:46:14;;;;;;;7.78;7.18;;;27.20;93.20;;;;;;6187327;28;89036;-64
2022/07/25 00:49:15;;;;;;;7.40;6.80;;;27.20;93.30;;;;;;6183929;28;90055;-64
2022/07/25 00:52:17;;;;;;;7.18;6.65;;;27.20;93.30;;;;;;6201448;28;89035;-64
2022/07/25 00:55:23;;;;;;;7.30;6.70;;;27.20;93.30;;;;;;6204299;28;89008;-64
2022/07/25 00:58:25;;;;;;;7.30;6.70;;;27.20;93.30;;;;;;6207365;28;89009;-64
2022/07/25 01:01:27;;;;;;;7.65;7.05;;;27.30;93.40;;;;;;6195243;28;89093;-64
2022/07/25 01:04:29;;;;;;;6.50;6.00;;;27.20;93.30;;;;;;6207170;28;89107;-64
2022/07/25 01:07:31;;;;;;;7.50;6.80;;;27.20;93.30;;;;;;6206604;28;89142;-64
2022/07/25 01:10:35;;;;;;;7.50;6.82;;;27.20;93.20;;;;;;6195823;28;87577;-64
2022/07/25 01:13:37;;;;;;;6.90;6.30;;;27.20;93.10;;;;;;6187441;28;87792;-64
2022/07/25 01:16:40;;;;;;;6.80;6.20;;;27.20;93.10;;;;;;6185434;28;88966;-64
2022/07/25 01:19:42;;;;;;;7.10;6.45;;;27.20;93.10;;;;;;6206807;28;89994;-65
2022/07/25 01:22:46;;;;;;;7.50;6.90;;;27.20;93.10;;;;;;6207304;28;89161;-64
2022/07/25 01:25:48;;;;;;;6.45;5.93;;;27.20;93.10;;;;;;6199767;28;87980;-64
2022/07/25 01:28:51;;;;;;;6.90;6.30;;;27.20;93.10;;;;;;6206160;28;89119;-64
2022/07/25 01:31:53;;;;;;;6.80;6.20;;;27.20;93.10;;;;;;6206973;28;89586;-64
2022/07/25 01:34:55;;;;;;;6.95;6.45;;;27.20;93.20;;;;;;6202155;28;87953;-64
2022/07/25 01:37:58;;;;;;;7.28;6.72;;;27.20;93.20;;;;;;6193939;28;89355;-64
2022/07/25 01:41:00;;;;;;;6.72;6.22;;;27.20;93.30;;;;;;6196093;28;88340;-64
2022/07/25 01:44:02;;;;;;;7.20;6.70;;;27.20;93.20;;;;;;6193583;28;89144;-64
2022/07/25 01:47:05;;;;;;;7.43;6.82;;;27.20;93.20;;;;;;6198677;28;89211;-64
2022/07/25 01:50:08;;;;;;;7.72;7.13;;;27.20;93.10;;;;;;6184726;28;90006;-64
2022/07/25 01:53:11;;;;;;;6.97;6.38;;;27.20;93.10;;;;;;6206115;28;89061;-64
2022/07/25 01:56:13;;;;;;;7.20;6.60;;;27.20;93.00;;;;;;6206235;28;89020;-64
2022/07/25 01:59:15;;;;;;;7.43;6.88;;;27.20;93.00;;;;;;6199036;28;89145;-64
2022/07/25 02:02:17;;;;;;;7.00;6.30;;;27.20;93.00;;;;;;6202364;28;89079;-64
2022/07/25 02:05:19;;;;;;;6.63;6.13;;;27.20;93.00;;;;;;6204832;28;89055;-64
2022/07/25 02:08:23;;;;;;;7.07;6.57;;;27.20;93.00;;;;;;6206723;28;89052;-64
2022/07/25 02:11:25;;;;;;;7.82;7.15;;;27.20;92.90;;;;;;6206914;28;88400;-64
2022/07/25 02:14:27;;;;;;;7.13;6.53;;;27.20;92.90;;;;;;6206921;28;87967;-65
2022/07/25 02:17:28;;;;;;;7.22;6.72;;;27.20;92.90;;;;;;6202229;28;89458;-64
2022/07/25 02:20:30;;;;;;;7.13;6.53;;;27.20;92.90;;;;;;6205691;28;89981;-64
2022/07/25 02:23:34;;;;;;;7.13;6.63;;;27.20;93.00;;;;;;6201552;28;89100;-64
2022/07/25 02:26:36;;;;;;;7.38;6.78;;;27.10;93.00;;;;;;6203910;28;89403;-64
2022/07/25 02:29:39;;;;;;;7.68;6.97;;;27.20;93.00;;;;;;6209626;28;89044;-64
2022/07/25 02:32:41;;;;;;;6.50;6.00;;;27.20;93.00;;;;;;6205405;28;90020;-64
2022/07/25 02:35:43;;;;;;;7.03;6.43;;;27.20;92.90;;;;;;6212942;28;89421;-64
2022/07/25 02:38:46;;;;;;;7.35;6.78;;;27.20;92.90;;;;;;6190031;28;89973;-64
2022/07/25 02:41:48;;;;;;;6.57;6.07;;;27.20;92.80;;;;;;6211210;28;88315;-64
2022/07/25 02:44:50;;;;;;;6.72;6.22;;;27.20;92.80;;;;;;6213242;28;88961;-64
2022/07/25 02:47:52;;;;;;;7.10;6.50;;;27.20;92.70;;;;;;6201478;28;87985;-64
2022/07/25 02:50:54;;;;;;;7.88;7.28;;;27.20;92.70;;;;;;6200762;28;90295;-64
2022/07/25 02:53:57;;;;;;;7.00;6.50;;;27.20;92.70;;;;;;6213388;28;89503;-64
2022/07/25 02:56:59;;;;;;;7.40;6.80;;;27.20;92.60;;;;;;6195658;28;89424;-64
2022/07/25 03:00:02;;;;;;;7.55;7.00;;;27.20;92.60;;;;;;6202645;28;89187;-64
2022/07/25 03:03:04;;;;;;;6.80;6.30;;;27.20;92.60;;;;;;6204867;28;87958;-64
2022/07/25 03:06:06;;;;;;;7.10;6.60;;;27.10;92.70;;;;;;6198620;28;89044;-64
2022/07/25 03:09:10;;;;;;;7.07;6.55;;;27.20;92.80;;;;;;6204733;28;89143;-64
2022/07/25 03:12:12;;;;;;;7.40;6.80;;;27.10;92.80;;;;;;6189621;28;88379;-64
2022/07/25 03:15:14;;;;;;;7.20;6.70;;;27.20;92.80;;;;;;6207353;28;87042;-64
2022/07/25 03:18:16;;;;;;;6.55;6.05;;;27.20;92.80;;;;;;6195834;28;89002;-64
2022/07/25 03:21:18;;;;;;;6.05;5.65;;;27.20;92.70;;;;;;6197915;28;90329;-64
2022/07/25 03:24:21;;;;;;;7.30;6.70;;;27.20;92.70;;;;;;6193096;28;89060;-64
2022/07/25 03:27:23;;;;;;;7.70;7.10;;;27.10;92.60;;;;;;6206631;28;89390;-64
2022/07/25 03:30:25;;;;;;;6.65;6.15;;;27.20;92.50;;;;;;6204796;28;87941;-64
2022/07/25 03:33:27;;;;;;;7.15;6.65;;;27.20;92.50;;;;;;6211907;28;89104;-64
2022/07/25 03:36:29;;;;;;;6.93;6.32;;;27.10;92.90;;;;;;6213413;28;88640;-64
2022/07/25 03:39:33;;;;;;;6.70;6.20;;;27.10;92.50;;;;;;6196111;28;89100;-64
2022/07/25 03:42:35;;;;;;;6.47;5.97;;;27.10;92.50;;;;;;6208901;28;88352;-64
2022/07/25 03:45:37;;;;;;;6.82;6.32;;;27.10;92.50;;;;;;6205782;28;89095;-64
2022/07/25 03:48:39;;;;;;;6.50;6.00;;;27.10;92.40;;;;;;6208219;28;87981;-64
2022/07/25 03:51:41;;;;;;;6.63;6.10;;;27.10;92.50;;;;;;6207742;28;90015;-64
2022/07/25 03:54:44;;;;;;;6.72;6.13;;;27.10;92.60;;;;;;6195973;28;89056;-64
2022/07/25 03:57:46;;;;;;;7.30;6.75;;;27.10;92.60;;;;;;6197388;28;89219;-64
2022/07/25 04:00:48;;;;;;;7.22;6.63;;;27.10;92.60;;;;;;6197115;28;89133;-64
2022/07/25 04:03:50;;;;;;;7.00;6.50;;;27.10;92.60;;;;;;6208342;28;89226;-64
2022/07/25 04:06:52;;;;;;;6.35;5.88;;;27.20;92.60;;;;;;6207983;28;88983;-64
2022/07/25 04:09:56;;;;;;;7.03;6.53;;;27.10;92.50;;;;;;6206398;28;89049;-64
2022/07/25 04:12:57;;;;;;;6.85;6.35;;;27.10;92.50;;;;;;6201672;28;88264;-64
2022/07/25 04:15:59;;;;;;;7.50;6.88;;;27.20;92.50;;;;;;6195345;28;89018;-64
2022/07/25 04:19:01;;;;;;;6.03;5.63;;;27.10;92.40;;;;;;6186054;28;89061;-64
2022/07/25 04:22:03;;;;;;;6.50;6.00;;;27.10;92.40;;;;;;6200180;28;90343;-64
2022/07/25 04:25:08;;;;;;;6.60;6.10;;;27.10;92.80;;;;;;6203422;28;89061;-64
2022/07/25 04:28:10;;;;;;;6.90;6.40;;;27.10;92.30;;;;;;6193556;28;89175;-64
2022/07/25 04:31:12;;;;;;;6.95;6.45;;;27.10;92.40;;;;;;6192231;28;88062;-64
2022/07/25 04:34:14;;;;;;;7.03;6.53;;;27.10;92.40;;;;;;6207377;28;89079;-64
2022/07/25 04:37:16;;;;;;;6.97;6.47;;;27.10;92.50;;;;;;6193998;28;89726;-64
2022/07/25 04:40:20;;;;;;;7.40;6.80;;;27.10;92.50;;;;;;6184593;28;89051;-64
2022/07/25 04:43:22;;;;;;;7.63;7.00;;;27.10;92.60;;;;;;6197562;28;88284;-64
2022/07/25 04:46:24;;;;;;;7.55;6.88;;;27.10;92.60;;;;;;6206047;28;89034;-64
2022/07/25 04:49:26;;;;;;;7.18;6.57;;;27.10;92.60;;;;;;6199883;28;89174;-64
2022/07/25 04:52:28;;;;;;;7.30;6.60;;;27.10;92.60;;;;;;6201677;28;89991;-64
2022/07/25 04:55:32;;;;;;;6.90;6.30;;;27.20;92.50;;;;;;6201258;28;89069;-64
2022/07/25 04:58:34;;;;;;;7.50;6.90;;;27.10;92.50;;;;;;6204375;28;89078;-64
2022/07/25 05:01:36;;;;;;;7.53;6.85;;;27.10;92.40;;;;;;6204300;28;89461;-64
2022/07/25 05:04:38;;;;;;;7.43;6.90;;;27.10;92.30;;;;;;6199515;28;89064;-64
2022/07/25 05:07:40;;;;;;;6.97;6.43;;;27.20;92.30;;;;;;6197660;28;89053;-64
2022/07/25 05:10:43;;;;;;;7.38;6.68;;;27.10;92.20;;;;;;6206475;28;89081;-64
2022/07/25 05:13:45;;;;;;;7.80;7.10;;;27.10;92.20;;;;;;6207519;28;88524;-64
2022/07/25 05:16:47;;;;;;;7.82;7.03;;;27.10;92.10;;;;;;6206869;28;89231;-64
2022/07/25 05:19:49;;;;;;;7.63;7.00;;;27.20;92.00;;;;;;6207733;28;89036;-64
2022/07/25 05:22:51;;;;;;;7.93;7.32;;;27.10;92.00;;;;;;6192981;28;90050;-64
2022/07/25 05:25:55;;;;;;;7.70;7.10;;;27.10;91.90;;;;;;6198730;28;89205;-64
2022/07/25 05:28:57;;;;;;;7.85;7.15;;;27.20;91.90;;;;;;6195635;28;89393;-64
2022/07/25 05:31:59;;;;;;;7.82;7.22;;;27.20;91.90;;;;;;6205034;28;88125;-64
2022/07/25 05:35:01;;;;;;;8.10;7.30;;;27.20;91.90;;;;;;6207579;28;89053;-64
2022/07/25 05:38:03;;;;;;;8.25;7.63;;;27.20;91.80;;;;;;6206148;28;89035;-64
2022/07/25 05:41:07;;;;;;;8.70;8.00;;;27.20;91.50;;;;;;6203338;28;89068;-64
2022/07/25 05:44:09;;;;;;;7.60;7.00;;;27.20;91.20;;;;;;6203404;28;87156;-64
2022/07/25 05:47:11;;;;;;;7.90;7.30;;;27.20;91.30;;;;;;6191136;28;89138;-64
2022/07/25 05:50:13;;;;;;;8.38;7.68;;;27.20;91.40;;;;;;6186043;28;89012;-64
2022/07/25 05:53:15;;;;;;;8.05;7.45;;;27.20;91.40;;;;;;6195548;28;90019;-64
2022/07/25 05:56:18;;;;;;;8.73;8.02;;;27.10;91.20;;;;;;6206308;28;89134;-64
2022/07/25 05:59:20;;;;;;;8.05;7.45;;;27.20;91.20;;;;;;6196397;28;89133;-64
2022/07/25 06:02:22;;;;;;;8.75;7.95;;;27.20;91.10;;;;;;6195302;28;89133;-64
2022/07/25 06:05:24;;;;;;;8.27;7.68;;;27.20;91.20;;;;;;6187747;28;89089;-64
2022/07/25 06:08:27;;;;;;;8.13;7.53;;;27.20;91.30;;;;;;6198541;28;89065;-64
2022/07/25 06:11:30;;;;;;;8.27;7.57;;;27.20;91.50;;;;;;6206162;28;89211;-64
2022/07/25 06:14:32;;;;;;;8.00;7.30;;;27.20;91.60;;;;;;6203333;28;86314;-64
2022/07/25 06:17:34;;;;;;;8.77;7.57;;;27.20;91.70;;;;;;6192994;28;89043;-64
2022/07/25 06:20:36;;;;;;;8.20;7.60;;;27.20;91.70;;;;;;6203158;28;89128;-64
2022/07/25 06:23:38;;;;;;;8.75;7.95;;;27.20;91.60;;;;;;6205395;28;88984;-64
2022/07/25 06:26:42;;;;;;;8.20;7.50;;;27.20;91.50;;;;;;6188753;28;89337;-64
2022/07/25 06:29:44;;;;;;;8.45;7.75;;;27.20;91.50;;;;;;6192767;28;89286;-64
2022/07/25 06:32:46;;;;;;;8.05;7.45;;;27.30;91.40;;;;;;6201651;28;89069;-64
2022/07/25 06:35:48;;;;;;;8.40;7.70;;;27.30;91.40;;;;;;6191031;28;87967;-64
2022/07/25 06:38:50;;;;;;;8.65;7.85;;;27.30;91.40;;;;;;6186184;28;89100;-65
2022/07/25 06:41:53;;;;;;;8.77;8.00;;;27.30;91.10;;;;;;6184402;28;89158;-64
2022/07/25 06:44:55;;;;;;;8.95;8.15;;;27.30;91.00;;;;;;6196844;28;88231;-65
2022/07/25 06:47:57;;;;;;;7.75;7.05;;;27.30;90.80;;;;;;6205601;28;89203;-64
2022/07/25 06:50:59;;;;;;;8.20;7.55;;;27.30;91.20;;;;;;6195732;28;89124;-64
2022/07/25 06:54:01;;;;;;;8.60;7.93;;;27.30;91.10;;;;;;6191611;28;89325;-64
2022/07/25 06:57:05;;;;;;;8.48;7.70;;;27.30;91.00;;;;;;6190397;28;89018;-64
2022/07/25 07:00:10;;;;;;;8.57;7.85;;;27.30;90.90;;;;;;6204793;28;89033;-64
2022/07/25 07:03:12;;;;;;;9.45;8.52;;;27.30;90.80;;;;;;6193273;28;89019;-64
2022/07/25 07:06:14;;;;;;;9.57;8.68;;;27.30;90.90;;;;;;6195719;28;89069;-64
2022/07/25 07:09:16;;;;;;;8.88;8.07;;;27.30;90.70;;;;;;6204760;28;88299;-64
2022/07/25 07:12:19;;;;;;;8.50;7.80;;;27.30;90.80;;;;;;6194469;28;89143;-64
2022/07/25 07:15:21;;;;;;;9.32;8.48;;;27.30;90.80;;;;;;6208916;28;88398;-64
2022/07/25 07:18:23;;;;;;;9.18;8.38;;;27.30;90.70;;;;;;6200617;28;89092;-64
2022/07/25 07:21:25;;;;;;;8.90;8.20;;;27.30;90.60;;;;;;6185722;28;89077;-64
2022/07/25 07:24:27;;;;;;;9.18;8.15;;;27.30;90.80;;;;;;6183766;28;90373;-64
2022/07/25 07:27:31;;;;;;;9.15;8.35;;;27.30;90.80;;;;;;6209633;28;89221;-64
2022/07/25 07:30:33;;;;;;;9.45;8.55;;;27.30;90.90;;;;;;6209140;28;88936;-64
2022/07/25 07:33:37;;;;;;;8.82;7.93;;;27.30;91.00;;;;;;6207715;28;89026;-64
2022/07/25 07:36:38;;;;;;;9.52;8.63;;;27.30;90.90;;;;;;6206340;28;89092;-64
2022/07/25 07:39:41;;;;;;;9.35;8.50;;;27.30;91.00;;;;;;6208500;28;89074;-64
2022/07/25 07:42:46;;;;;;;8.88;8.07;;;27.30;91.00;;;;;;6200856;28;89363;-64
2022/07/25 07:45:48;;;;;;;9.73;8.82;;;27.30;90.80;;;;;;6204250;28;88329;-64
2022/07/25 07:48:50;;;;;;;8.80;8.10;;;27.30;90.70;;;;;;6192608;28;89163;-64
2022/07/25 07:51:52;;;;;;;8.55;7.95;;;27.30;90.90;;;;;;6186628;28;89421;-64
2022/07/25 07:58:18;;;;;;;9.50;8.70;;;27.30;91.30;;;;;;6194625;28;88390;-64
2022/07/25 08:01:20;;;;;;;9.35;8.43;;;27.30;91.20;;;;;;6208706;28;89081;-64
2022/07/25 08:04:22;;;;;;;9.38;8.68;;;27.40;91.20;;;;;;6198073;28;88028;-64
2022/07/25 08:07:24;;;;;;;8.30;7.70;;;27.40;91.20;;;;;;6201076;28;89334;-64
2022/07/25 08:10:29;;;;;;;9.63;8.80;;;27.30;91.40;;;;;;6189902;28;89379;-64
2022/07/25 08:13:33;;;;;;;9.73;8.93;;;27.40;91.60;;;;;;6189746;28;89099;-64
2022/07/25 08:16:35;;;;;;;9.80;9.00;;;27.30;91.60;;;;;;6187813;28;88195;-64
2022/07/25 08:19:37;;;;;;;9.18;8.40;;;27.30;91.50;;;;;;6194961;28;89418;-65
2022/07/25 08:22:40;;;;;;;9.40;8.68;;;27.30;91.70;;;;;;6194968;28;89186;-65
2022/07/25 08:25:43;;;;;;;9.38;8.48;;;27.30;92.10;;;;;;6199773;28;90324;-65
2022/07/25 08:28:46;;;;;;;9.15;8.45;;;27.30;92.20;;;;;;6206693;28;88000;-64
2022/07/25 08:31:48;;;;;;;9.65;8.85;;;27.30;92.20;;;;;;6206610;28;88958;-65
2022/07/25 08:34:50;;;;;;;9.95;9.15;;;27.30;92.30;;;;;;6208987;28;89167;-64
2022/07/25 08:37:53;;;;;;;9.32;8.55;;;27.30;92.30;;;;;;6207770;28;89136;-64
2022/07/25 08:40:57;;;;;;;9.32;8.52;;;27.40;92.40;;;;;;6206973;28;89112;-65
2022/07/25 08:44:02;;;;;;;9.65;8.85;;;27.40;92.50;;;;;;6207731;28;87903;-64
2022/07/25 08:47:04;;;;;;;8.98;8.27;;;27.30;92.60;;;;;;6203400;28;88403;-64
2022/07/25 08:50:09;;;;;;;9.07;8.38;;;27.40;92.70;;;;;;6199060;28;87967;-64
2022/07/25 08:53:11;;;;;;;9.32;8.50;;;27.30;92.50;;;;;;6205305;28;89049;-64
2022/07/25 08:56:13;;;;;;;10.05;9.15;;;27.40;92.50;;;;;;6195299;28;90136;-64
2022/07/25 08:59:17;;;;;;;9.07;8.38;;;27.40;92.40;;;;;;6196043;28;89459;-65
2022/07/25 09:02:19;;;;;;;9.35;8.43;;;27.40;92.40;;;;;;6205468;28;89186;-64
2022/07/25 09:05:21;;;;;;;8.98;8.27;;;27.30;92.60;;;;;;6198764;28;89191;-65
2022/07/25 09:08:23;;;;;;;9.25;8.50;;;27.40;92.70;;;;;;6197097;28;89115;-64
2022/07/25 09:11:30;;;;;;;9.18;8.38;;;27.40;92.90;;;;;;6200151;28;89038;-64
2022/07/25 09:14:42;;;;;;;9.35;8.45;;;27.40;92.90;;;;;;6204330;28;89247;-64
2022/07/25 09:17:50;;;;;;;9.18;8.48;;;27.40;93.00;;;;;;6193466;28;87313;-64
2022/07/25 09:20:57;;;;;;;9.75;8.73;;;27.40;93.20;;;;;;6201766;28;89572;-64
2022/07/25 09:24:08;;;;;;;10.00;9.10;;;27.30;93.70;;;;;;6181714;28;89141;-64
2022/07/25 09:27:11;;;;;;;9.00;8.30;;;27.30;93.80;;;;;;6195279;28;91237;-64
2022/07/25 09:30:16;;;;;;;9.23;8.52;;;27.40;93.80;;;;;;6202620;28;89031;-64
2022/07/25 09:33:18;;;;;;;10.00;9.10;;;27.40;93.70;;;;;;6205693;28;89101;-65
2022/07/25 09:36:20;;;;;;;9.30;8.48;;;27.40;94.00;;;;;;6205910;28;89046;-64
2022/07/25 09:39:33;;;;;;;9.77;8.98;;;27.40;94.20;;;;;;6203158;28;89173;-64
2022/07/25 09:42:36;;;;;;;10.15;9.27;;;27.30;93.80;;;;;;6197669;28;89062;-64
2022/07/25 09:45:49;;;;;;;9.88;9.05;;;27.30;94.10;;;;;;6206490;28;89114;-65
2022/07/25 09:48:57;;;;;;;9.85;8.93;;;27.40;94.10;;;;;;6206009;28;87929;-64
2022/07/25 09:51:59;;;;;;;9.32;8.52;;;27.30;94.10;;;;;;6205773;28;89081;-65
2022/07/25 09:55:05;;;;;;;10.35;9.55;;;27.40;94.10;;;;;;6188329;28;89137;-65
2022/07/25 09:58:07;;;;;;;9.20;8.50;;;27.40;94.50;;;;;;6199940;28;90047;-64
2022/07/25 10:01:13;;;;;;;9.88;9.07;;;27.30;94.40;;;;;;6199392;28;89064;-64
2022/07/25 10:04:21;;;;;;;10.23;9.38;;;27.30;94.40;;;;;;6191179;28;89118;-65
2022/07/25 10:07:24;;;;;;;10.40;9.50;;;27.30;94.70;;;;;;6189699;28;87983;-65
2022/07/25 10:10:28;;;;;;;10.40;9.50;;;27.40;95.00;;;;;;6188345;28;89123;-64
2022/07/25 10:13:33;;;;;;;9.30;8.60;;;27.40;95.00;;;;;;6188333;28;89139;-64
2022/07/25 10:16:46;;;;;;;9.93;9.13;;;27.40;94.80;;;;;;6202864;28;88005;-64
2022/07/25 10:19:48;;;;;;;10.20;9.35;;;27.40;95.30;;;;;;6197619;28;87213;-64
2022/07/25 10:22:51;;;;;;;9.88;8.98;;;27.30;95.10;;;;;;6205616;28;89164;-65
2022/07/25 10:26:07;;;;;;;10.20;9.40;;;27.40;95.00;;;;;;6205864;28;88509;-65
2022/07/25 10:29:10;;;;;;;10.02;9.18;;;27.30;95.00;;;;;;6196467;28;90049;-64
2022/07/25 10:32:16;;;;;;;9.90;9.10;;;27.40;95.40;;;;;;6201698;28;89421;-65
2022/07/25 10:35:19;;;;;;;9.80;9.00;;;27.40;95.50;;;;;;6181494;28;89099;-64
2022/07/25 10:38:24;;;;;;;9.45;8.68;;;27.40;95.30;;;;;;6207033;28;89072;-64
2022/07/25 10:41:28;;;;;;;9.15;8.45;;;27.40;95.10;;;;;;6194340;28;89107;-65
2022/07/25 10:44:41;;;;;;;9.80;9.00;;;27.40;95.00;;;;;;6203574;28;87890;-64
2022/07/25 10:47:54;;;;;;;9.38;8.68;;;27.40;95.00;;;;;;6203728;28;89011;-64
2022/07/25 10:50:58;;;;;;;9.25;8.45;;;27.40;95.10;;;;;;6197348;28;88754;-64
2022/07/25 10:54:01;;;;;;;9.13;8.43;;;27.40;95.10;;;;;;6208556;28;89170;-64
2022/07/25 10:57:05;;;;;;;8.98;8.27;;;27.40;95.10;;;;;;6188065;28;89178;-65
2022/07/25 11:00:09;;;;;;;9.32;8.63;;;27.40;95.10;;;;;;6192621;28;90001;-64
2022/07/25 11:03:12;;;;;;;9.30;8.55;;;27.40;95.00;;;;;;6209206;28;89415;-64
2022/07/25 11:06:15;;;;;;;8.70;8.05;;;27.40;95.00;;;;;;6204015;28;88078;-65
2022/07/25 11:09:19;;;;;;;8.85;8.15;;;27.40;95.00;;;;;;6201371;28;89170;-64
2022/07/25 11:12:21;;;;;;;8.98;8.25;;;27.40;94.90;;;;;;6197083;28;89095;-65
2022/07/25 11:15:24;;;;;;;8.93;8.13;;;27.40;94.80;;;;;;6196754;28;89099;-64
2022/07/25 11:18:35;;;;;;;8.73;8.07;;;27.40;94.80;;;;;;6196875;28;89145;-65
2022/07/25 11:21:44;;;;;;;8.45;7.78;;;27.30;94.80;;;;;;6210352;28;90470;-65
2022/07/25 11:24:47;;;;;;;8.88;8.07;;;27.30;94.80;;;;;;6195850;28;89237;-65
2022/07/25 11:27:57;;;;;;;8.80;8.10;;;27.30;94.80;;;;;;6194671;28;89652;-65
2022/07/25 11:31:03;;;;;;;9.10;8.40;;;27.40;94.90;;;;;;6198011;28;89057;-65
2022/07/25 11:34:07;;;;;;;8.80;8.10;;;27.40;95.00;;;;;;6196307;28;88942;-65
2022/07/25 11:37:11;;;;;;;8.90;8.20;;;27.40;95.10;;;;;;6199039;28;89171;-64
2022/07/25 11:40:15;;;;;;;9.20;8.50;;;27.40;95.10;;;;;;6194810;28;89329;-64
2022/07/25 11:43:20;;;;;;;8.88;8.18;;;27.40;95.20;;;;;;6195591;28;89247;-65
2022/07/25 11:46:22;;;;;;;8.68;7.97;;;27.40;95.20;;;;;;6201135;28;89123;-65
2022/07/25 11:49:26;;;;;;;8.32;7.72;;;27.40;95.10;;;;;;6201588;28;89185;-64
2022/07/25 11:52:30;;;;;;;8.63;7.93;;;27.40;95.00;;;;;;6207425;28;88437;-65
2022/07/25 11:55:36;;;;;;;8.88;8.18;;;27.40;95.00;;;;;;6208344;28;89210;-65
2022/07/25 11:58:37;;;;;;;8.68;7.97;;;27.40;95.00;;;;;;6208269;28;89343;-64
2022/07/25 12:01:43;;;;;;;8.52;7.82;;;27.40;94.90;;;;;;6207612;28;90034;-64
2022/07/25 12:04:55;;;;;;;8.32;7.72;;;27.40;94.90;;;;;;6203659;28;88003;-65
2022/07/25 12:07:59;;;;;;;8.15;7.45;;;27.40;94.90;;;;;;6203295;28;89068;-64
2022/07/25 12:11:01;;;;;;;8.63;8.00;;;27.40;94.80;;;;;;6208108;28;89463;-65
2022/07/25 12:14:04;;;;;;;8.13;7.50;;;27.40;94.80;;;;;;6201919;28;89007;-64
2022/07/25 12:17:06;;;;;;;8.27;7.68;;;27.40;95.00;;;;;;6195124;28;89122;-64
2022/07/25 12:20:15;;;;;;;7.68;7.18;;;27.40;95.20;;;;;;6208788;28;89173;-65
2022/07/25 12:23:20;;;;;;;8.55;7.85;;;27.40;95.20;;;;;;6196954;28;88037;-64
2022/07/25 12:26:22;;;;;;;8.40;7.75;;;27.40;95.20;;;;;;6204842;28;88074;-65
2022/07/25 12:29:24;;;;;;;8.32;7.72;;;27.40;95.30;;;;;;6184870;28;89075;-64
2022/07/25 12:32:26;;;;;;;8.30;7.70;;;27.40;95.30;;;;;;6198475;28;90092;-65
2022/07/25 12:35:29;;;;;;;8.15;7.45;;;27.40;95.20;;;;;;6205761;28;90154;-64
2022/07/25 12:38:32;;;;;;;8.13;7.53;;;27.40;95.20;;;;;;6203688;28;89091;-65
2022/07/25 12:41:33;;;;;;;8.07;7.47;;;27.40;95.10;;;;;;6190992;28;89160;-65
2022/07/25 12:44:35;;;;;;;7.93;7.32;;;27.40;95.10;;;;;;6202540;28;87994;-64
2022/07/25 12:47:38;;;;;;;7.43;6.93;;;27.40;95.00;;;;;;6204610;28;87640;-65
2022/07/25 12:50:42;;;;;;;7.95;7.25;;;27.40;95.00;;;;;;6200324;28;89448;-65
2022/07/25 12:53:44;;;;;;;8.25;7.65;;;27.40;95.00;;;;;;6202636;28;88346;-64
2022/07/25 12:56:46;;;;;;;7.97;7.38;;;27.40;95.00;;;;;;6201847;28;89926;-65
2022/07/25 12:59:48;;;;;;;8.05;7.45;;;27.40;95.00;;;;;;6194355;28;89055;-65
2022/07/25 13:02:51;;;;;;;8.02;7.43;;;27.40;95.00;;;;;;6196276;28;89995;-64
2022/07/25 13:05:55;;;;;;;8.50;7.90;;;27.40;95.20;;;;;;6194458;28;89083;-65
2022/07/25 13:08:57;;;;;;;8.60;7.90;;;27.40;95.20;;;;;;6202052;28;89180;-64
2022/07/25 13:12:00;;;;;;;7.82;7.22;;;27.40;95.30;;;;;;6199247;28;89124;-65
2022/07/25 13:15:02;;;;;;;7.50;6.90;;;27.40;95.30;;;;;;6199946;28;89049;-65
2022/07/25 13:18:04;;;;;;;8.00;7.40;;;27.40;95.30;;;;;;6194669;28;89046;-65
2022/07/25 13:21:07;;;;;;;7.72;7.13;;;27.40;95.30;;;;;;6207365;28;89038;-65
2022/07/25 13:24:10;;;;;;;8.00;7.40;;;27.40;95.30;;;;;;6194291;28;87238;-65
2022/07/25 13:27:12;;;;;;;8.00;7.40;;;27.40;95.20;;;;;;6201811;28;89090;-65
2022/07/25 13:30:15;;;;;;;8.02;7.32;;;27.40;95.20;;;;;;6202062;28;89080;-65
2022/07/25 13:33:16;;;;;;;7.68;7.07;;;27.40;95.20;;;;;;6204953;28;90371;-65
2022/07/25 13:36:20;;;;;;;8.20;7.60;;;27.40;95.20;;;;;;6201998;28;89168;-65
2022/07/25 13:39:22;;;;;;;7.75;7.15;;;27.40;95.10;;;;;;6187608;28;89232;-65
2022/07/25 13:42:24;;;;;;;7.68;7.07;;;27.40;95.10;;;;;;6200926;28;89078;-65
2022/07/25 13:45:27;;;;;;;8.32;7.72;;;27.40;95.10;;;;;;6206492;28;89068;-65
2022/07/25 13:48:30;;;;;;;8.05;7.45;;;27.40;95.20;;;;;;6199798;28;89151;-65
2022/07/25 13:51:33;;;;;;;8.50;7.80;;;27.40;95.30;;;;;;6205947;28;89092;-65
2022/07/25 13:54:35;;;;;;;7.97;7.38;;;27.40;95.40;;;;;;6191201;28;88309;-65
2022/07/25 13:57:37;;;;;;;8.38;7.78;;;27.40;95.40;;;;;;6194502;28;89255;-65
2022/07/25 14:00:39;;;;;;;7.55;6.97;;;27.40;95.40;;;;;;6207853;28;87168;-65
2022/07/25 14:03:41;;;;;;;7.70;7.10;;;27.50;95.50;;;;;;6205545;28;90193;-65
2022/07/25 14:06:50;;;;;;;8.15;7.55;;;27.40;95.40;;;;;;6197051;28;89099;-65
2022/07/25 14:09:52;;;;;;;7.20;6.70;;;27.40;95.40;;;;;;6202402;28;89327;-65
2022/07/25 14:12:54;;;;;;;7.40;6.90;;;27.50;95.40;;;;;;6199567;28;87867;-65
2022/07/25 14:15:57;;;;;;;7.88;7.25;;;27.40;95.30;;;;;;6199510;28;89203;-65
2022/07/25 14:19:00;;;;;;;7.65;7.05;;;27.40;95.30;;;;;;6205622;28;89104;-65
2022/07/25 14:22:04;;;;;;;8.10;7.50;;;27.40;95.30;;;;;;6192425;28;89135;-65
2022/07/25 14:25:06;;;;;;;7.93;7.32;;;27.50;95.30;;;;;;6207203;28;88328;-65
2022/07/25 14:28:09;;;;;;;7.93;7.32;;;27.50;95.30;;;;;;6189618;28;89117;-65
2022/07/25 14:31:11;;;;;;;8.00;7.40;;;27.40;95.30;;;;;;6197181;28;88977;-65
2022/07/25 14:34:14;;;;;;;7.90;7.30;;;27.40;95.30;;;;;;6205540;28;90023;-65
2022/07/25 14:37:19;;;;;;;8.02;7.43;;;27.40;95.30;;;;;;6204796;28;87085;-65
2022/07/25 14:40:21;;;;;;;7.70;7.10;;;27.40;95.40;;;;;;6205569;28;89102;-65
2022/07/25 14:43:23;;;;;;;8.05;7.38;;;27.40;95.40;;;;;;6204482;28;89606;-65
2022/07/25 14:46:25;;;;;;;8.00;7.40;;;27.40;95.50;;;;;;6185797;28;89019;-65
2022/07/25 14:49:29;;;;;;;8.00;7.40;;;27.40;95.50;;;;;;6188059;28;88293;-65
2022/07/25 14:52:32;;;;;;;7.85;7.25;;;27.40;95.50;;;;;;6203666;28;88944;-65
2022/07/25 14:55:35;;;;;;;8.23;7.40;;;27.40;95.40;;;;;;6206525;28;88477;-65
2022/07/25 14:58:38;;;;;;;7.68;7.07;;;27.50;95.50;;;;;;6205053;28;89064;-66
2022/07/25 15:01:40;;;;;;;8.10;7.50;;;27.50;95.40;;;;;;6185759;28;89385;-65
2022/07/25 15:04:43;;;;;;;7.75;7.15;;;27.40;95.40;;;;;;6194098;28;90018;-65
2022/07/25 15:07:47;;;;;;;7.78;7.18;;;27.50;95.80;;;;;;6197569;28;89061;-65
2022/07/25 15:10:49;;;;;;;7.47;6.97;;;27.40;95.30;;;;;;6203550;28;90251;-66
2022/07/25 15:13:51;;;;;;;7.75;7.15;;;27.50;95.30;;;;;;6192650;28;89170;-65
2022/07/25 15:16:53;;;;;;;7.68;7.07;;;27.50;95.30;;;;;;6205417;28;89025;-65
2022/07/25 15:19:56;;;;;;;7.85;7.25;;;27.50;95.30;;;;;;6192484;28;89132;-65
2022/07/25 15:22:59;;;;;;;7.80;7.20;;;27.50;95.40;;;;;;6195592;28;89125;-65
2022/07/25 15:26:01;;;;;;;7.65;7.05;;;27.50;95.50;;;;;;6193620;28;88386;-65
2022/07/25 15:29:06;;;;;;;7.88;7.28;;;27.50;95.80;;;;;;6204783;28;89912;-66
2022/07/25 15:32:08;;;;;;;8.85;8.05;;;27.50;96.20;;;;;;6196478;28;89145;-66
2022/07/25 15:35:11;;;;;;;8.65;7.85;;;27.50;96.30;;;;;;6201091;28;90065;-67
2022/07/25 15:38:15;;;;;;;9.30;8.27;;;27.50;96.40;;;;;;6205867;28;89041;-67
2022/07/25 15:41:17;;;;;;;9.60;8.40;;;27.50;96.70;;;;;;6198582;28;89197;-67
2022/07/25 15:44:19;;;;;;;14.02;9.98;;;27.50;98.20;;;;;;6206382;28;89190;-66
2022/07/25 15:47:21;;;;;;;9.80;8.45;;;27.50;97.80;;;;;;6196269;28;89289;-66
2022/07/25 15:50:24;;;;;;;12.57;9.57;;;27.50;98.10;;;;;;6206943;28;89319;-67
2022/07/25 15:53:28;;;;;;;12.23;9.90;;;27.50;98.70;;;;;;6203122;28;89664;-67